Time;durP1;ratioP1;P1;durP2;ratioP2;P2;SDS_P1;SDS_P2;PMS_P1;PMS_P2;Temp;Humidity;BMP_temperature;BMP_pressure;BME280_temperature;BME280_humidity;BME280_pressure;Samples;Min_cycle;Max_cycle;Signal;HPM_P1;HPM_P2
2022/04/03 00:00:23;;;;;;;2.50;1.27;;;3.30;73.40;;;;;;5066439;28;20051;-69
2022/04/03 00:02:53;;;;;;;3.25;1.50;;;3.30;73.40;;;;;;5070127;28;20044;-70
2022/04/03 00:05:21;;;;;;;2.63;1.73;;;3.30;73.40;;;;;;5068613;28;20099;-69
2022/04/03 00:07:48;;;;;;;3.25;1.60;;;3.30;73.60;;;;;;5065955;28;20072;-69
2022/04/03 00:10:15;;;;;;;3.83;1.42;;;3.30;73.60;;;;;;5069114;28;21077;-69
2022/04/03 00:12:46;;;;;;;3.67;1.33;;;3.30;73.80;;;;;;5068417;28;20137;-69
2022/04/03 00:15:13;;;;;;;4.00;1.92;;;3.30;73.90;;;;;;5068307;28;20071;-68
2022/04/03 00:17:42;;;;;;;2.92;1.27;;;3.20;74.10;;;;;;5069305;28;20063;-69
2022/04/03 00:20:11;;;;;;;3.60;1.50;;;3.20;74.10;;;;;;5067920;28;20048;-71
2022/04/03 00:22:38;;;;;;;3.53;1.30;;;3.20;74.10;;;;;;5050424;28;20436;-70
2022/04/03 00:25:06;;;;;;;3.35;1.63;;;3.20;74.20;;;;;;5069539;28;20050;-69
2022/04/03 00:27:33;;;;;;;2.47;1.65;;;3.20;74.40;;;;;;5069867;28;20060;-68
2022/04/03 00:29:59;;;;;;;2.63;1.38;;;3.20;74.60;;;;;;5070498;28;20140;-69
2022/04/03 00:32:27;;;;;;;2.78;1.08;;;3.20;74.50;;;;;;5067919;28;20139;-69
2022/04/03 00:34:56;;;;;;;4.68;1.73;;;3.10;74.60;;;;;;5070859;28;20139;-70
2022/04/03 00:37:23;;;;;;;5.55;1.83;;;3.10;74.70;;;;;;5068018;28;20048;-69
2022/04/03 00:39:50;;;;;;;3.15;1.42;;;3.10;74.70;;;;;;5068974;28;20052;-69
2022/04/03 00:42:18;;;;;;;3.78;1.55;;;3.10;74.80;;;;;;5064488;28;20032;-68
2022/04/03 00:44:45;;;;;;;5.40;1.40;;;3.10;74.70;;;;;;5068278;28;20052;-69
2022/04/03 00:47:13;;;;;;;4.90;1.92;;;3.00;74.80;;;;;;5068476;28;20032;-70
2022/04/03 00:49:41;;;;;;;3.08;1.48;;;3.00;74.80;;;;;;5068102;28;20041;-69
2022/04/03 00:52:09;;;;;;;4.00;1.77;;;3.00;74.80;;;;;;5068247;28;20064;-70
2022/04/03 00:54:38;;;;;;;5.85;1.73;;;3.00;74.90;;;;;;5067661;28;20045;-69
2022/04/03 00:57:07;;;;;;;2.80;1.27;;;3.00;75.00;;;;;;5067464;28;20489;-69
2022/04/03 00:59:35;;;;;;;2.95;1.40;;;3.00;75.00;;;;;;5069100;28;20048;-70
2022/04/03 01:02:03;;;;;;;4.18;1.88;;;2.90;75.10;;;;;;5065183;28;20098;-69
2022/04/03 01:04:31;;;;;;;3.25;1.77;;;2.90;75.10;;;;;;5068816;28;20163;-69
2022/04/03 01:06:59;;;;;;;2.63;1.60;;;2.90;75.10;;;;;;5064151;28;20071;-69
2022/04/03 01:09:28;;;;;;;2.83;1.40;;;2.90;75.10;;;;;;5066091;28;20052;-69
2022/04/03 01:11:56;;;;;;;4.47;1.70;;;2.80;75.20;;;;;;5062757;28;20498;-69
2022/04/03 01:14:33;;;;;;;3.33;1.42;;;2.80;75.30;;;;;;5066448;28;20040;-70
2022/04/03 01:17:01;;;;;;;4.32;1.73;;;2.80;75.30;;;;;;5067411;28;20040;-70
2022/04/03 01:19:28;;;;;;;3.15;1.30;;;2.80;75.40;;;;;;5067376;28;20071;-70
2022/04/03 01:21:55;;;;;;;2.22;1.10;;;2.70;75.40;;;;;;5068320;28;20036;-70
2022/04/03 01:24:24;;;;;;;4.55;2.53;;;2.80;75.50;;;;;;5065865;28;20116;-70
2022/04/03 01:26:53;;;;;;;5.28;1.92;;;2.70;75.50;;;;;;5066340;28;20094;-70
2022/04/03 01:29:21;;;;;;;3.63;1.65;;;2.70;75.40;;;;;;5061877;28;20047;-68
2022/04/03 01:31:48;;;;;;;3.88;1.60;;;2.70;75.60;;;;;;5059936;28;20044;-69
2022/04/03 01:34:16;;;;;;;4.00;1.90;;;2.70;75.50;;;;;;5066075;28;20177;-69
2022/04/03 01:36:43;;;;;;;6.18;2.75;;;2.60;75.60;;;;;;5065835;28;20040;-69
2022/04/03 01:39:12;;;;;;;3.80;1.73;;;2.60;75.60;;;;;;5063483;28;20056;-69
2022/04/03 01:41:40;;;;;;;4.53;1.63;;;2.60;75.70;;;;;;5064119;28;20524;-69
2022/04/03 01:44:09;;;;;;;3.63;1.92;;;2.60;75.60;;;;;;5065633;28;20070;-69
2022/04/03 01:46:37;;;;;;;5.10;1.80;;;2.60;75.60;;;;;;5066054;28;20048;-70
2022/04/03 01:49:05;;;;;;;5.25;2.05;;;2.50;75.60;;;;;;5048604;28;20151;-70
2022/04/03 01:51:33;;;;;;;6.63;1.85;;;2.50;75.70;;;;;;5066759;28;20044;-69
2022/04/03 01:54:00;;;;;;;5.03;1.75;;;2.50;75.70;;;;;;5064662;28;20037;-67
2022/04/03 01:56:29;;;;;;;3.78;1.88;;;2.50;75.70;;;;;;5061722;28;20037;-70
2022/04/03 01:58:56;;;;;;;4.05;1.52;;;2.50;75.70;;;;;;5065297;28;20402;-69
2022/04/03 02:01:25;;;;;;;4.63;2.13;;;2.50;75.80;;;;;;5063747;28;20115;-69
2022/04/03 02:03:52;;;;;;;3.00;1.92;;;2.40;76.00;;;;;;5065246;28;20055;-69
2022/04/03 02:06:21;;;;;;;3.75;1.70;;;2.40;76.10;;;;;;5062932;28;20511;-69
2022/04/03 02:08:48;;;;;;;3.60;1.65;;;2.40;76.20;;;;;;5060498;28;20055;-69
2022/04/03 02:11:15;;;;;;;3.08;1.83;;;2.40;76.20;;;;;;5065010;28;20044;-70
2022/04/03 02:13:42;;;;;;;3.53;1.25;;;2.40;76.30;;;;;;5066565;28;20263;-68
2022/04/03 02:16:10;;;;;;;2.70;1.50;;;2.40;76.30;;;;;;5062643;28;20048;-70
2022/04/03 02:18:39;;;;;;;3.78;1.20;;;2.40;76.30;;;;;;5065476;28;20139;-70
2022/04/03 02:21:06;;;;;;;2.45;1.00;;;2.40;76.40;;;;;;5067437;28;20071;-70
2022/04/03 02:23:33;;;;;;;4.90;1.60;;;2.40;76.40;;;;;;5066409;28;20041;-69
2022/04/03 02:26:00;;;;;;;3.13;1.35;;;2.40;76.50;;;;;;5067091;28;20044;-69
2022/04/03 02:28:27;;;;;;;2.78;1.23;;;2.40;76.60;;;;;;5065607;28;20048;-70
2022/04/03 02:30:54;;;;;;;3.20;1.30;;;2.30;76.70;;;;;;5067295;28;20477;-69
2022/04/03 02:33:21;;;;;;;2.50;1.10;;;2.40;76.70;;;;;;5065314;28;20505;-69
2022/04/03 02:35:50;;;;;;;3.88;1.83;;;2.40;76.70;;;;;;5066229;28;20045;-69
2022/04/03 02:38:18;;;;;;;4.03;1.50;;;2.40;76.70;;;;;;5062861;28;20053;-68
2022/04/03 02:40:45;;;;;;;3.40;1.50;;;2.40;76.70;;;;;;5046399;28;20409;-70
2022/04/03 02:43:12;;;;;;;4.80;1.55;;;2.40;76.70;;;;;;5067296;28;20041;-69
2022/04/03 02:45:42;;;;;;;4.53;1.48;;;2.30;76.70;;;;;;5062974;28;20052;-70
2022/04/03 02:48:09;;;;;;;1.92;1.02;;;2.30;76.80;;;;;;5066231;28;20500;-69
2022/04/03 02:50:36;;;;;;;2.80;1.20;;;2.30;76.60;;;;;;5066358;28;20048;-70
2022/04/03 02:53:06;;;;;;;2.22;1.20;;;2.30;76.70;;;;;;5066173;28;20047;-69
2022/04/03 02:55:33;;;;;;;3.42;1.70;;;2.30;76.50;;;;;;5049160;28;20086;-69
2022/04/03 02:58:00;;;;;;;3.30;1.27;;;2.20;76.40;;;;;;5065654;28;20522;-70
2022/04/03 03:00:28;;;;;;;2.97;1.40;;;2.20;76.40;;;;;;5063915;28;20083;-69
2022/04/03 03:02:57;;;;;;;2.97;1.40;;;2.20;76.50;;;;;;5064112;28;20044;-70
2022/04/03 03:05:24;;;;;;;4.18;1.80;;;2.20;76.40;;;;;;5066545;28;20043;-70
2022/04/03 03:07:51;;;;;;;2.33;1.20;;;2.10;76.40;;;;;;5062201;28;20043;-70
2022/04/03 03:10:22;;;;;;;3.30;1.40;;;2.10;76.50;;;;;;5064770;28;20044;-70
2022/04/03 03:12:49;;;;;;;4.05;1.55;;;2.10;76.40;;;;;;5064717;28;20052;-68
2022/04/03 03:15:16;;;;;;;3.20;1.35;;;2.10;76.70;;;;;;5064252;28;20088;-69
2022/04/03 03:17:43;;;;;;;4.70;1.63;;;2.10;76.80;;;;;;5068616;28;20047;-69
2022/04/03 03:20:12;;;;;;;4.05;2.53;;;2.10;76.70;;;;;;5065169;28;20045;-70
2022/04/03 03:22:40;;;;;;;3.90;1.70;;;2.10;76.50;;;;;;5070738;28;20045;-69
2022/04/03 03:25:07;;;;;;;3.13;1.65;;;2.10;76.60;;;;;;5067302;28;20048;-71
2022/04/03 03:27:36;;;;;;;4.35;1.60;;;2.00;76.70;;;;;;5068852;28;20041;-70
2022/04/03 03:30:04;;;;;;;3.33;1.50;;;2.10;76.70;;;;;;5068958;28;20048;-70
2022/04/03 03:32:31;;;;;;;3.78;1.80;;;2.10;76.60;;;;;;5064078;28;20624;-70
2022/04/03 03:34:58;;;;;;;3.83;1.40;;;2.00;76.80;;;;;;5065889;28;20043;-70
2022/04/03 03:37:25;;;;;;;5.45;2.35;;;2.00;76.70;;;;;;5068455;28;20044;-69
2022/04/03 03:39:53;;;;;;;3.13;1.73;;;2.00;76.50;;;;;;5066522;28;20068;-69
2022/04/03 03:42:20;;;;;;;1.92;0.82;;;2.00;76.40;;;;;;5068731;28;20036;-69
2022/04/03 03:44:49;;;;;;;6.47;1.67;;;2.00;76.40;;;;;;5069944;28;20057;-68
2022/04/03 03:47:16;;;;;;;3.00;1.35;;;1.90;76.40;;;;;;5068638;28;20055;-69
2022/04/03 03:49:43;;;;;;;3.03;1.48;;;1.90;76.40;;;;;;5068300;28;20033;-71
2022/04/03 03:52:10;;;;;;;3.35;1.20;;;1.90;76.40;;;;;;5066633;28;20111;-70
2022/04/03 03:54:37;;;;;;;3.85;1.42;;;1.90;76.30;;;;;;5069106;28;20045;-69
2022/04/03 03:57:04;;;;;;;3.95;1.50;;;1.90;76.20;;;;;;5067562;28;20075;-69
2022/04/03 03:59:31;;;;;;;7.07;1.65;;;1.80;76.30;;;;;;5069822;28;20044;-70
2022/04/03 04:02:01;;;;;;;2.97;1.38;;;1.80;76.30;;;;;;5062647;28;20064;-70
2022/04/03 04:04:29;;;;;;;4.55;1.67;;;1.80;76.30;;;;;;5071427;28;20094;-69
2022/04/03 04:06:56;;;;;;;3.72;2.22;;;1.80;76.50;;;;;;5070931;28;20048;-70
2022/04/03 04:09:23;;;;;;;3.80;1.58;;;1.70;76.30;;;;;;5057610;28;20148;-69
2022/04/03 04:11:51;;;;;;;4.95;1.75;;;1.70;76.30;;;;;;5066424;28;20164;-70
2022/04/03 04:14:18;;;;;;;2.97;1.50;;;1.70;76.30;;;;;;5071008;28;20041;-70
2022/04/03 04:16:46;;;;;;;1.67;1.02;;;1.70;76.30;;;;;;5069654;28;20047;-69
2022/04/03 04:19:15;;;;;;;2.90;1.55;;;1.70;76.60;;;;;;5064848;28;20414;-70
2022/04/03 04:21:42;;;;;;;3.97;1.83;;;1.70;76.50;;;;;;5067968;28;20036;-70
2022/04/03 04:24:10;;;;;;;4.93;1.70;;;1.70;76.50;;;;;;5069925;28;20074;-70
2022/04/03 04:26:40;;;;;;;3.53;1.85;;;1.70;76.50;;;;;;5067860;28;20077;-71
2022/04/03 04:29:07;;;;;;;8.10;2.25;;;1.70;76.40;;;;;;5070602;28;20055;-71
2022/04/03 04:31:34;;;;;;;3.67;1.60;;;1.60;76.40;;;;;;5071478;28;20052;-70
2022/04/03 04:34:03;;;;;;;6.72;1.60;;;1.60;76.60;;;;;;5064107;28;20111;-71
2022/04/03 04:36:31;;;;;;;7.70;1.80;;;1.60;76.50;;;;;;5064351;28;20068;-71
2022/04/03 04:38:58;;;;;;;3.50;1.48;;;1.60;76.40;;;;;;5070672;28;20517;-71
2022/04/03 04:41:25;;;;;;;3.08;1.35;;;1.60;76.40;;;;;;5069849;28;20048;-72
2022/04/03 04:43:52;;;;;;;4.82;1.02;;;1.60;76.50;;;;;;5068213;28;20052;-72
2022/04/03 04:46:20;;;;;;;2.85;1.10;;;1.50;76.50;;;;;;5061122;28;20037;-70
2022/04/03 04:48:48;;;;;;;2.35;1.23;;;1.60;76.50;;;;;;5065188;28;20123;-70
2022/04/03 04:51:16;;;;;;;5.38;1.88;;;1.50;76.50;;;;;;5068540;28;20036;-71
2022/04/03 04:53:44;;;;;;;3.40;1.83;;;1.50;76.50;;;;;;5068140;28;20063;-72
2022/04/03 04:56:12;;;;;;;3.72;1.63;;;1.50;76.40;;;;;;5068847;28;20052;-71
2022/04/03 04:58:39;;;;;;;5.50;1.95;;;1.50;76.40;;;;;;5069638;28;20036;-70
2022/04/03 05:01:06;;;;;;;4.68;1.85;;;1.40;76.40;;;;;;5065068;28;20036;-70
2022/04/03 05:03:33;;;;;;;2.42;1.38;;;1.40;76.30;;;;;;5067110;28;20056;-70
2022/04/03 05:06:00;;;;;;;4.90;1.48;;;1.40;76.30;;;;;;5059250;28;20040;-70
2022/04/03 05:08:29;;;;;;;4.20;1.65;;;1.40;76.40;;;;;;5069490;28;20036;-70
2022/04/03 05:10:58;;;;;;;2.35;1.30;;;1.40;76.40;;;;;;5067701;28;20044;-70
2022/04/03 05:13:25;;;;;;;2.47;1.30;;;1.40;76.30;;;;;;5068566;28;20045;-70
2022/04/03 05:15:54;;;;;;;5.40;1.95;;;1.30;76.30;;;;;;5068236;28;20098;-70
2022/04/03 05:18:21;;;;;;;6.43;1.80;;;1.30;76.30;;;;;;5069374;28;20086;-69
2022/04/03 05:20:48;;;;;;;4.88;2.30;;;1.30;76.30;;;;;;5069336;28;20040;-70
2022/04/03 05:23:16;;;;;;;3.50;1.67;;;1.30;76.40;;;;;;5069979;28;20402;-70
2022/04/03 05:25:42;;;;;;;3.05;1.85;;;1.30;76.40;;;;;;5068858;28;20122;-69
2022/04/03 05:28:11;;;;;;;3.50;1.77;;;1.30;76.50;;;;;;5070683;28;20043;-70
2022/04/03 05:30:38;;;;;;;2.22;1.48;;;1.20;76.30;;;;;;5066383;28;20553;-71
2022/04/03 05:33:05;;;;;;;4.10;2.25;;;1.30;76.40;;;;;;5070454;28;20485;-70
2022/04/03 05:35:32;;;;;;;4.55;1.67;;;1.30;76.40;;;;;;5047878;28;20507;-71
2022/04/03 05:38:00;;;;;;;3.10;1.77;;;1.30;76.40;;;;;;5063695;28;20094;-70
2022/04/03 05:40:28;;;;;;;3.80;1.42;;;1.30;76.30;;;;;;5068330;28;20044;-69
2022/04/03 05:42:55;;;;;;;5.40;2.10;;;1.30;76.30;;;;;;5069490;28;20139;-70
2022/04/03 05:45:23;;;;;;;4.32;2.20;;;1.30;76.30;;;;;;5069182;28;20052;-71
2022/04/03 05:47:50;;;;;;;4.45;2.45;;;1.30;76.20;;;;;;5069691;28;20048;-70
2022/04/03 05:50:17;;;;;;;2.70;1.55;;;1.30;76.10;;;;;;5066013;28;20051;-70
2022/04/03 05:52:45;;;;;;;4.90;2.05;;;1.30;76.10;;;;;;5068619;28;20504;-70
2022/04/03 05:55:13;;;;;;;4.45;1.67;;;1.30;76.00;;;;;;5067500;28;20051;-71
2022/04/03 05:57:41;;;;;;;4.80;2.20;;;1.30;76.00;;;;;;5068265;28;20641;-70
2022/04/03 06:00:12;;;;;;;3.50;2.17;;;1.30;76.10;;;;;;5063906;28;20048;-69
2022/04/03 06:02:47;;;;;;;5.50;2.13;;;1.40;76.10;;;;;;5068513;28;20052;-71
2022/04/03 06:05:14;;;;;;;3.67;1.95;;;1.40;76.10;;;;;;5068980;28;20040;-71
2022/04/03 06:07:41;;;;;;;5.05;2.05;;;1.40;76.10;;;;;;5067862;28;20076;-71
2022/04/03 06:10:09;;;;;;;4.10;1.88;;;1.50;76.00;;;;;;5068945;28;20509;-71
2022/04/03 06:12:38;;;;;;;5.35;2.08;;;1.50;75.90;;;;;;5068689;28;20045;-71
2022/04/03 06:15:06;;;;;;;4.25;2.03;;;1.60;75.90;;;;;;5068007;28;20072;-71
2022/04/03 06:17:32;;;;;;;5.20;1.73;;;1.70;75.70;;;;;;5067472;28;20048;-70
2022/04/03 06:20:01;;;;;;;5.13;1.88;;;1.70;75.80;;;;;;5067018;28;20045;-71
2022/04/03 06:22:32;;;;;;;3.90;2.47;;;1.70;75.70;;;;;;5066537;28;20044;-70
2022/04/03 06:24:59;;;;;;;4.75;2.05;;;1.70;75.80;;;;;;5067390;28;20036;-71
2022/04/03 06:27:27;;;;;;;4.60;2.35;;;1.80;75.70;;;;;;5065936;28;20148;-70
2022/04/03 06:29:54;;;;;;;4.68;2.17;;;1.90;75.70;;;;;;5066366;28;20052;-71
2022/04/03 06:32:22;;;;;;;6.15;2.45;;;2.00;75.50;;;;;;5067099;28;20048;-70
2022/04/03 06:34:50;;;;;;;4.85;2.10;;;2.10;75.50;;;;;;5065494;28;20537;-70
2022/04/03 06:37:18;;;;;;;2.83;1.50;;;2.20;75.30;;;;;;5067187;28;20040;-71
2022/04/03 06:39:45;;;;;;;4.55;2.03;;;2.20;75.00;;;;;;5065866;28;20499;-70
2022/04/03 06:42:12;;;;;;;6.70;2.50;;;2.30;74.80;;;;;;5063384;28;20049;-70
2022/04/03 06:44:40;;;;;;;4.72;2.67;;;2.40;74.70;;;;;;5064034;28;20052;-71
2022/04/03 06:47:07;;;;;;;5.63;2.47;;;2.50;74.30;;;;;;5067649;28;20049;-70
2022/04/03 06:49:35;;;;;;;4.30;2.05;;;2.60;74.10;;;;;;5065611;28;20048;-70
2022/04/03 06:52:03;;;;;;;2.63;1.35;;;2.70;73.80;;;;;;5072162;28;20103;-70
2022/04/03 06:54:31;;;;;;;4.18;1.40;;;2.80;73.40;;;;;;5072305;28;20048;-70
2022/04/03 06:56:58;;;;;;;3.70;1.70;;;2.90;72.90;;;;;;5071471;28;20063;-69
2022/04/03 06:59:25;;;;;;;3.30;1.38;;;3.00;72.00;;;;;;5053145;28;20052;-71
2022/04/03 07:01:52;;;;;;;2.63;1.23;;;3.10;71.50;;;;;;5069587;28;20041;-70
2022/04/03 07:04:19;;;;;;;4.55;1.80;;;3.20;70.20;;;;;;5073419;28;20064;-71
2022/04/03 07:06:46;;;;;;;3.60;1.33;;;3.30;68.50;;;;;;5072612;28;20049;-69
2022/04/03 07:09:13;;;;;;;4.30;1.33;;;3.30;67.20;;;;;;5072986;28;20120;-69
2022/04/03 07:11:41;;;;;;;4.00;1.27;;;3.30;66.80;;;;;;5072158;28;20066;-68
2022/04/03 07:14:08;;;;;;;3.63;1.50;;;3.30;65.20;;;;;;5070824;28;20468;-69
2022/04/03 07:16:35;;;;;;;3.50;1.20;;;3.30;65.80;;;;;;5071616;28;20044;-68
2022/04/03 07:19:02;;;;;;;4.10;1.70;;;3.30;65.90;;;;;;5070089;28;20405;-69
2022/04/03 07:21:29;;;;;;;3.17;1.60;;;3.30;66.10;;;;;;5071056;28;20446;-69
2022/04/03 07:23:56;;;;;;;2.80;1.35;;;3.30;66.40;;;;;;5069499;28;20044;-68
2022/04/03 07:26:23;;;;;;;2.67;1.80;;;3.30;66.50;;;;;;5071942;28;20508;-68
2022/04/03 07:28:52;;;;;;;4.70;1.65;;;3.40;66.50;;;;;;5072212;28;20124;-69
2022/04/03 07:31:19;;;;;;;3.80;1.40;;;3.40;66.50;;;;;;5071180;28;20048;-70
2022/04/03 07:33:46;;;;;;;8.70;1.52;;;3.50;65.80;;;;;;5071084;28;20524;-70
2022/04/03 07:36:13;;;;;;;6.70;2.03;;;3.60;65.60;;;;;;5072606;28;20485;-69
2022/04/03 07:38:40;;;;;;;1.77;0.95;;;3.70;65.50;;;;;;5071617;28;20131;-69
2022/04/03 07:41:07;;;;;;;5.07;1.20;;;3.80;64.50;;;;;;5070650;28;20109;-70
2022/04/03 07:43:34;;;;;;;4.57;1.30;;;3.90;64.70;;;;;;5069097;28;20048;-69
2022/04/03 07:46:02;;;;;;;2.88;0.95;;;4.00;64.30;;;;;;5069080;28;20040;-70
2022/04/03 07:48:29;;;;;;;3.42;1.25;;;4.20;64.40;;;;;;5071871;28;20086;-69
2022/04/03 07:50:56;;;;;;;4.70;1.60;;;4.30;63.40;;;;;;5066107;28;20058;-69
2022/04/03 07:53:23;;;;;;;1.65;0.70;;;4.40;62.80;;;;;;5072339;28;20405;-69
2022/04/03 07:55:50;;;;;;;3.05;1.25;;;4.50;62.40;;;;;;5071860;28;20053;-70
2022/04/03 07:58:17;;;;;;;4.07;1.25;;;4.70;61.80;;;;;;5071684;28;20072;-70
2022/04/03 08:00:46;;;;;;;4.80;1.33;;;4.80;61.30;;;;;;5070226;28;20066;-67
2022/04/03 08:03:14;;;;;;;2.20;1.10;;;4.90;60.40;;;;;;5069571;28;20037;-67
2022/04/03 08:05:42;;;;;;;2.88;0.85;;;5.00;60.30;;;;;;5071042;28;20049;-67
2022/04/03 08:08:09;;;;;;;2.70;1.15;;;5.20;60.80;;;;;;5067492;28;20072;-69
2022/04/03 08:10:35;;;;;;;4.20;1.05;;;5.30;59.70;;;;;;5069454;28;20047;-66
2022/04/03 08:13:02;;;;;;;5.00;1.30;;;5.30;59.80;;;;;;5070464;28;20427;-66
2022/04/03 08:15:30;;;;;;;5.45;1.60;;;5.40;59.20;;;;;;5069482;28;20040;-66
2022/04/03 08:17:57;;;;;;;3.75;1.42;;;5.50;58.70;;;;;;5068776;28;20099;-65
2022/04/03 08:20:25;;;;;;;7.57;1.13;;;5.50;58.80;;;;;;5069574;28;20053;-66
2022/04/03 08:22:52;;;;;;;2.95;1.15;;;5.60;57.60;;;;;;5070484;28;20499;-66
2022/04/03 08:25:19;;;;;;;2.42;1.02;;;5.70;57.80;;;;;;5067810;28;20132;-67
2022/04/03 08:27:49;;;;;;;3.20;1.30;;;5.80;57.60;;;;;;5069807;28;20048;-66
2022/04/03 08:30:19;;;;;;;1.60;0.70;;;5.90;56.50;;;;;;5070029;28;20124;-70
2022/04/03 08:32:47;;;;;;;1.95;0.85;;;6.00;56.10;;;;;;5069089;28;20516;-67
2022/04/03 08:35:14;;;;;;;3.22;1.13;;;6.00;54.60;;;;;;5068407;28;20041;-67
2022/04/03 08:37:44;;;;;;;2.80;0.70;;;6.10;54.00;;;;;;5070312;28;20051;-68
2022/04/03 08:40:13;;;;;;;2.95;1.02;;;6.20;52.30;;;;;;5066267;28;20494;-67
2022/04/03 08:42:41;;;;;;;2.45;0.88;;;6.20;52.00;;;;;;5066877;28;20048;-68
2022/04/03 08:45:11;;;;;;;1.65;0.90;;;6.30;53.10;;;;;;5069658;28;20080;-68
2022/04/03 08:47:43;;;;;;;1.65;1.02;;;6.40;52.50;;;;;;5070291;28;20045;-69
2022/04/03 08:50:12;;;;;;;2.97;1.17;;;6.40;51.40;;;;;;5069733;28;20043;-66
2022/04/03 08:52:41;;;;;;;2.50;1.00;;;6.50;52.10;;;;;;5071083;28;20509;-67
2022/04/03 08:55:10;;;;;;;2.25;0.80;;;6.50;52.20;;;;;;5070486;28;20052;-66
2022/04/03 08:57:37;;;;;;;1.60;0.80;;;6.60;50.60;;;;;;5068740;28;20127;-66
2022/04/03 09:00:06;;;;;;;3.58;1.17;;;6.60;51.10;;;;;;5066402;28;20056;-68
2022/04/03 09:02:33;;;;;;;2.92;1.20;;;6.60;51.30;;;;;;5071150;28;20043;-69
2022/04/03 09:05:00;;;;;;;1.92;0.90;;;6.70;51.50;;;;;;5070455;28;20059;-69
2022/04/03 09:07:27;;;;;;;2.90;1.05;;;6.70;50.30;;;;;;5069413;28;20044;-68
2022/04/03 09:09:58;;;;;;;2.00;0.82;;;6.70;50.40;;;;;;5069705;28;20063;-68
2022/04/03 09:12:27;;;;;;;1.45;0.80;;;6.70;51.30;;;;;;5068605;28;20044;-68
2022/04/03 09:14:56;;;;;;;2.20;0.60;;;6.70;48.80;;;;;;5070114;28;20106;-68
2022/04/03 09:17:33;;;;;;;1.27;0.63;;;6.60;46.10;;;;;;5069259;28;20036;-68
2022/04/03 09:20:03;;;;;;;1.50;0.57;;;6.40;46.10;;;;;;5069190;28;20482;-66
2022/04/03 09:22:30;;;;;;;1.67;0.52;;;6.30;44.90;;;;;;5070935;28;20105;-67
2022/04/03 09:24:57;;;;;;;3.15;1.00;;;6.20;45.20;;;;;;5068339;28;20579;-67
2022/04/03 09:27:26;;;;;;;2.72;1.02;;;6.10;45.70;;;;;;5071011;28;20190;-67
2022/04/03 09:30:02;;;;;;;2.53;0.95;;;6.00;45.30;;;;;;5067357;28;20123;-68
2022/04/03 09:32:29;;;;;;;1.08;0.65;;;5.90;45.10;;;;;;5069347;28;20296;-68
2022/04/03 09:34:57;;;;;;;1.67;0.65;;;5.80;45.50;;;;;;5070209;28;20486;-67
2022/04/03 09:37:27;;;;;;;2.45;0.55;;;5.70;45.30;;;;;;5068014;28;20049;-70
2022/04/03 09:39:55;;;;;;;1.75;0.88;;;5.70;45.50;;;;;;5068102;28;20057;-68
2022/04/03 09:42:23;;;;;;;1.58;0.90;;;5.90;46.10;;;;;;5066783;28;20467;-67
2022/04/03 09:44:52;;;;;;;3.15;0.70;;;6.10;46.00;;;;;;5063692;28;20141;-68
2022/04/03 09:47:21;;;;;;;1.40;0.73;;;6.20;45.80;;;;;;5067032;28;20040;-68
2022/04/03 09:49:56;;;;;;;1.88;0.82;;;6.40;45.80;;;;;;5066631;28;20555;-68
2022/04/03 09:52:34;;;;;;;3.10;0.90;;;6.50;45.90;;;;;;5067845;28;20036;-68
2022/04/03 09:55:01;;;;;;;1.55;0.60;;;6.70;46.60;;;;;;5068572;28;20032;-68
2022/04/03 09:57:28;;;;;;;1.77;0.60;;;6.80;45.80;;;;;;5066614;28;20049;-68
2022/04/03 09:59:57;;;;;;;1.40;0.65;;;7.00;43.80;;;;;;5065017;28;20098;-68
2022/04/03 10:02:24;;;;;;;2.08;0.70;;;7.10;43.20;;;;;;5064050;28;20067;-70
2022/04/03 10:04:52;;;;;;;2.15;0.98;;;7.30;43.40;;;;;;5066934;28;20433;-68
2022/04/03 10:07:20;;;;;;;1.38;0.70;;;7.40;43.30;;;;;;5066561;28;20032;-68
2022/04/03 10:09:48;;;;;;;3.13;1.17;;;7.50;43.60;;;;;;5069174;28;20524;-68
2022/04/03 10:12:17;;;;;;;3.30;1.25;;;7.50;41.80;;;;;;5062921;28;20044;-68
2022/04/03 10:14:45;;;;;;;2.88;0.90;;;7.40;41.20;;;;;;5068174;28;20727;-68
2022/04/03 10:17:14;;;;;;;1.42;0.77;;;7.40;41.60;;;;;;5067798;28;20056;-69
2022/04/03 10:19:41;;;;;;;1.17;0.43;;;7.40;40.10;;;;;;5059957;28;20412;-69
2022/04/03 10:22:14;;;;;;;1.27;0.50;;;7.40;40.40;;;;;;5067562;28;20498;-67
2022/04/03 10:24:44;;;;;;;2.25;0.95;;;7.40;41.50;;;;;;5067529;28;20044;-69
2022/04/03 10:27:14;;;;;;;;;;;7.40;42.60;;;;;;5069496;28;20043;-68
2022/04/03 10:29:44;;;;;;;1.60;0.90;;;7.40;42.30;;;;;;5068192;28;19967;-69
2022/04/03 10:32:24;;;;;;;1.60;0.63;;;7.50;43.00;;;;;;5068256;28;20070;-68
2022/04/03 10:34:54;;;;;;;1.10;0.60;;;7.60;42.30;;;;;;5068808;28;20045;-69
2022/04/03 10:37:26;;;;;;;2.60;0.70;;;7.70;42.70;;;;;;5068207;28;20048;-68
2022/04/03 10:39:54;;;;;;;1.20;0.55;;;7.70;42.70;;;;;;5067896;28;20171;-68
2022/04/03 10:42:26;;;;;;;2.40;0.90;;;7.70;42.80;;;;;;5065136;28;20076;-68
2022/04/03 10:45:24;;;;;;;1.40;0.55;;;7.70;42.20;;;;;;5050149;28;20496;-68
2022/04/03 10:48:13;;;;;;;1.52;0.85;;;7.70;41.30;;;;;;5067646;28;20040;-69
2022/04/03 10:51:20;;;;;;;1.80;0.70;;;7.60;40.30;;;;;;5069211;28;20040;-69
2022/04/03 10:53:50;;;;;;;0.60;0.45;;;7.40;39.60;;;;;;5051685;28;20076;-69
2022/04/03 10:56:23;;;;;;;1.55;0.60;;;7.40;39.70;;;;;;5066070;28;20044;-68
2022/04/03 10:58:51;;;;;;;2.33;0.90;;;7.50;40.40;;;;;;5067527;28;20036;-68
2022/04/03 11:01:27;;;;;;;1.50;0.70;;;7.50;39.90;;;;;;5065847;28;20502;-69
2022/04/03 11:04:00;;;;;;;1.48;0.75;;;7.70;40.40;;;;;;5068603;28;20091;-69
2022/04/03 11:06:37;;;;;;;2.88;0.73;;;7.70;39.90;;;;;;5067761;28;20040;-69
2022/04/03 11:09:07;;;;;;;1.33;0.65;;;7.70;39.00;;;;;;5068514;28;20048;-70
2022/04/03 11:11:55;;;;;;;1.23;0.55;;;7.70;39.70;;;;;;5069434;28;20045;-69
2022/04/03 11:14:56;;;;;;;1.35;0.77;;;7.80;39.40;;;;;;5060831;28;20387;-69
2022/04/03 11:17:41;;;;;;;;;;;7.90;39.80;;;;;;5069652;28;20110;-69
2022/04/03 11:20:10;;;;;;;2.22;0.68;;;8.00;39.80;;;;;;5068482;28;19932;-70
2022/04/03 11:22:38;;;;;;;1.10;0.43;;;8.10;40.20;;;;;;5066787;28;20071;-71
2022/04/03 11:25:06;;;;;;;1.17;0.60;;;8.10;40.20;;;;;;5065002;28;20045;-71
2022/04/03 11:27:33;;;;;;;3.08;1.00;;;8.20;40.40;;;;;;5064043;28;20063;-71
2022/04/03 11:30:00;;;;;;;1.00;0.55;;;8.10;39.60;;;;;;5067845;28;20116;-70
2022/04/03 11:32:30;;;;;;;2.10;0.65;;;8.10;39.60;;;;;;5065269;28;20044;-71
2022/04/03 11:34:58;;;;;;;4.00;1.10;;;8.20;40.10;;;;;;5066959;28;20051;-72
2022/04/03 11:37:26;;;;;;;2.05;0.90;;;8.20;39.30;;;;;;5069503;28;20520;-72
2022/04/03 11:39:55;;;;;;;3.88;1.05;;;8.20;39.80;;;;;;5069020;28;20064;-70
2022/04/03 11:42:24;;;;;;;1.60;0.80;;;8.30;39.70;;;;;;5067379;28;20147;-71
2022/04/03 11:44:55;;;;;;;3.42;1.15;;;8.30;39.90;;;;;;5051303;28;20114;-71
2022/04/03 11:47:24;;;;;;;2.15;0.80;;;8.30;39.50;;;;;;5070331;28;20046;-70
2022/04/03 11:50:06;;;;;;;2.10;0.93;;;8.30;39.60;;;;;;5070120;28;20047;-71
2022/04/03 11:52:38;;;;;;;1.80;0.70;;;8.30;39.30;;;;;;5069553;28;20135;-72
2022/04/03 11:55:10;;;;;;;2.70;1.08;;;8.20;38.70;;;;;;5070210;28;20063;-71
2022/04/03 11:57:38;;;;;;;2.00;0.77;;;8.20;39.00;;;;;;5069066;28;20044;-70
2022/04/03 12:00:08;;;;;;;1.23;0.77;;;8.20;39.20;;;;;;5048662;28;20114;-71
2022/04/03 12:02:41;;;;;;;1.25;0.63;;;8.20;38.80;;;;;;5070986;28;20044;-70
2022/04/03 12:05:09;;;;;;;2.22;1.00;;;8.20;39.20;;;;;;5072299;28;20040;-71
2022/04/03 12:07:37;;;;;;;0.98;0.63;;;8.20;39.60;;;;;;5070815;28;20044;-71
2022/04/03 12:10:05;;;;;;;3.15;1.00;;;8.10;38.90;;;;;;5071945;28;20040;-71
2022/04/03 12:12:32;;;;;;;3.55;0.85;;;8.10;39.30;;;;;;5069410;28;20045;-71
2022/04/03 12:15:00;;;;;;;2.60;0.70;;;8.20;39.80;;;;;;5072766;28;20045;-70
2022/04/03 12:17:30;;;;;;;3.15;0.90;;;8.30;39.90;;;;;;5070976;28;20056;-70
2022/04/03 12:19:57;;;;;;;3.00;0.90;;;8.30;40.00;;;;;;5071123;28;20042;-72
2022/04/03 12:22:25;;;;;;;1.33;0.63;;;8.40;39.90;;;;;;5069947;28;20430;-71
2022/04/03 12:24:56;;;;;;;2.35;1.05;;;8.30;39.50;;;;;;5070085;28;20036;-71
2022/04/03 12:27:25;;;;;;;2.38;0.70;;;8.30;39.50;;;;;;5070654;28;20062;-70
2022/04/03 12:29:54;;;;;;;2.40;0.82;;;8.30;39.20;;;;;;5072451;28;20395;-71
2022/04/03 12:32:35;;;;;;;1.13;0.63;;;8.30;39.20;;;;;;5070470;28;20048;-72
2022/04/03 12:35:05;;;;;;;1.95;0.90;;;8.40;39.40;;;;;;5070114;28;20041;-71
2022/04/03 12:37:34;;;;;;;1.08;0.75;;;8.40;39.40;;;;;;5070739;28;20047;-72
2022/04/03 12:40:08;;;;;;;6.43;1.55;;;8.40;38.70;;;;;;5069334;28;20079;-72
2022/04/03 12:42:36;;;;;;;2.60;0.70;;;8.40;38.40;;;;;;5069381;28;20468;-71
2022/04/03 12:45:06;;;;;;;2.08;1.00;;;8.30;38.50;;;;;;5068198;28;20059;-71
2022/04/03 12:47:38;;;;;;;3.07;0.83;;;8.30;38.50;;;;;;5071229;28;20067;-71
2022/04/03 12:50:23;;;;;;;1.13;0.63;;;8.30;38.60;;;;;;5070597;28;20558;-70
2022/04/03 12:52:56;;;;;;;2.08;0.70;;;8.30;38.40;;;;;;5070553;28;20040;-72
2022/04/03 12:55:41;;;;;;;3.65;0.65;;;8.30;38.20;;;;;;5067560;28;20109;-71
2022/04/03 12:58:25;;;;;;;1.13;0.68;;;8.20;37.80;;;;;;5067276;28;20048;-71
2022/04/03 13:00:55;;;;;;;1.48;0.60;;;8.10;37.70;;;;;;5067169;28;20044;-71
2022/04/03 13:03:24;;;;;;;1.23;0.68;;;8.10;37.50;;;;;;5066840;28;20454;-71
2022/04/03 13:05:54;;;;;;;2.15;0.90;;;8.10;37.30;;;;;;5069702;28;20072;-71